Robinson, PA

12:44 PM EDT on July 23, 2016 (GMT -0400)
New Florence | | Change Station

Elev 1188 ft 40.37 °N, 79.06 °W | Updated 1 minute ago

Mostly Cloudy
Mostly Cloudy
88.9 °F
Feels Like 102 °F
N
0.0
Wind Variable Wind from NNE

Today
High -- | Low -- °F
--% Chance of Precip.
Yesterday
High -- | Low -- °F
Precip. -- in
Pressure 30.03 in
Visibility 10.0 miles
Clouds Few 2700 ft
Scattered Clouds 3500 ft
Mostly Cloudy 5000 ft
Heat Index 102 °F
Dew Point 77 °F
Humidity 68%
Rainfall 0.00 in
Snow Depth Not available.
6:06 AM 8:39 PM
Waning Gibbous, 84% visible
METAR KIDI 231635Z AUTO 25009KT 10SM FEW027 SCT035 BKN050 30/23 A3003 RMK A01
Pressure 30.03 in
Visibility 10.0 miles
Clouds Few 2700 ft
Scattered Clouds 3500 ft
Mostly Cloudy 5000 ft
Heat Index 102 °F
Dew Point 77 °F
Humidity 68%
Rainfall 0.00 in
Snow Depth Not available.
6:06 AM 8:39 PM
Waning Gibbous, 84% visible
METAR KIDI 231635Z AUTO 25009KT 10SM FEW027 SCT035 BKN050 30/23 A3003 RMK A01

10-Day Weather Forecast

Almanac

Astronomy

Jul. 23, 2016 Rise Set
Actual Time
Civil Twilight
Nautical Twilight
Astronomical Twilight
Moon
Length of Visible Light
Length of Day
Tomorrow will be .
, % of the Moon is Illuminated

Today's Extremes

State Highs State Lows

Community

WunderPhotos

Upload Photos

1,926,861 photos uploaded!

WunderBlog® & News

Nearby

Air Quality

  Air Quality AQ Index Pollutant
Not available.

Snow Depth

Station Depth Elevation

Earthquake Activity

City Distance Mag. Time & Date
Minimum magnitude displayed is 2.5.

Coastal Water Temperatures

Place Temperature

Stations

Nearby Weather Stations

Station Location Temp. Windchill Dew Point Humidity Wind Precip. Elev Updated Type
                   

Watches & Warnings

There are currently no watches in effect.